sensor_id;sensor_type;location;lat;lon;timestamp;temperature;humidity
48488;DHT22;34289;48.572;13.378;2023-05-10T00:02:06;10.50;99.90
48488;DHT22;34289;48.572;13.378;2023-05-10T00:04:32;10.60;99.90
48488;DHT22;34289;48.572;13.378;2023-05-10T00:06:58;10.50;99.90
48488;DHT22;34289;48.572;13.378;2023-05-10T00:09:23;10.70;99.90
48488;DHT22;34289;48.572;13.378;2023-05-10T00:11:49;10.60;99.90
48488;DHT22;34289;48.572;13.378;2023-05-10T00:14:15;10.80;99.90
48488;DHT22;34289;48.572;13.378;2023-05-10T00:16:41;10.80;99.90
48488;DHT22;34289;48.572;13.378;2023-05-10T00:19:06;10.80;99.90
48488;DHT22;34289;48.572;13.378;2023-05-10T00:21:32;10.60;99.90
48488;DHT22;34289;48.572;13.378;2023-05-10T00:23:59;10.20;99.90
48488;DHT22;34289;48.572;13.378;2023-05-10T00:26:24;10.10;99.90
48488;DHT22;34289;48.572;13.378;2023-05-10T00:28:50;10.00;99.90
48488;DHT22;34289;48.572;13.378;2023-05-10T00:31:16;10.20;99.90
48488;DHT22;34289;48.572;13.378;2023-05-10T00:33:41;10.20;99.90
48488;DHT22;34289;48.572;13.378;2023-05-10T00:36:07;10.20;99.90
48488;DHT22;34289;48.572;13.378;2023-05-10T00:38:33;10.10;99.90
48488;DHT22;34289;48.572;13.378;2023-05-10T00:40:59;10.20;99.90
48488;DHT22;34289;48.572;13.378;2023-05-10T00:43:24;10.40;99.90
48488;DHT22;34289;48.572;13.378;2023-05-10T00:45:50;10.60;99.90
48488;DHT22;34289;48.572;13.378;2023-05-10T00:48:16;10.40;99.90
48488;DHT22;34289;48.572;13.378;2023-05-10T00:50:41;10.20;99.90
48488;DHT22;34289;48.572;13.378;2023-05-10T00:53:07;10.20;99.90
48488;DHT22;34289;48.572;13.378;2023-05-10T00:55:33;10.10;99.90
48488;DHT22;34289;48.572;13.378;2023-05-10T00:57:59;10.10;99.90
48488;DHT22;34289;48.572;13.378;2023-05-10T01:00:25;10.10;99.90
48488;DHT22;34289;48.572;13.378;2023-05-10T01:02:50;10.10;99.90
48488;DHT22;34289;48.572;13.378;2023-05-10T01:05:17;10.30;99.90
48488;DHT22;34289;48.572;13.378;2023-05-10T01:07:43;10.40;99.90
48488;DHT22;34289;48.572;13.378;2023-05-10T01:10:09;10.40;99.90
48488;DHT22;34289;48.572;13.378;2023-05-10T01:12:38;10.40;99.90
48488;DHT22;34289;48.572;13.378;2023-05-10T01:15:09;10.70;99.90
48488;DHT22;34289;48.572;13.378;2023-05-10T01:17:38;10.40;99.90
48488;DHT22;34289;48.572;13.378;2023-05-10T01:20:05;10.20;99.90
48488;DHT22;34289;48.572;13.378;2023-05-10T01:34:18;10.30;99.90
48488;DHT22;34289;48.572;13.378;2023-05-10T01:37:02;10.20;99.90
48488;DHT22;34289;48.572;13.378;2023-05-10T01:39:51;10.00;99.90
48488;DHT22;34289;48.572;13.378;2023-05-10T01:42:23;10.10;99.90
48488;DHT22;34289;48.572;13.378;2023-05-10T01:47:30;10.20;99.90
48488;DHT22;34289;48.572;13.378;2023-05-10T01:50:02;10.30;99.90
48488;DHT22;34289;48.572;13.378;2023-05-10T01:52:38;10.30;99.90
48488;DHT22;34289;48.572;13.378;2023-05-10T01:55:08;10.40;99.90
48488;DHT22;34289;48.572;13.378;2023-05-10T01:57:37;10.20;99.90
48488;DHT22;34289;48.572;13.378;2023-05-10T02:00:08;10.00;99.90
48488;DHT22;34289;48.572;13.378;2023-05-10T02:02:40;9.90;99.90
48488;DHT22;34289;48.572;13.378;2023-05-10T02:05:07;10.00;99.90
48488;DHT22;34289;48.572;13.378;2023-05-10T02:07:36;10.00;99.90
48488;DHT22;34289;48.572;13.378;2023-05-10T02:10:06;9.90;99.90
48488;DHT22;34289;48.572;13.378;2023-05-10T02:12:39;10.10;99.90
48488;DHT22;34289;48.572;13.378;2023-05-10T02:15:07;10.20;99.90
48488;DHT22;34289;48.572;13.378;2023-05-10T02:17:35;10.20;99.90
48488;DHT22;34289;48.572;13.378;2023-05-10T02:20:04;10.20;99.90
48488;DHT22;34289;48.572;13.378;2023-05-10T02:22:30;10.00;99.90
48488;DHT22;34289;48.572;13.378;2023-05-10T02:24:58;9.90;99.90
48488;DHT22;34289;48.572;13.378;2023-05-10T02:27:24;9.90;99.90
48488;DHT22;34289;48.572;13.378;2023-05-10T02:29:51;10.10;99.90
48488;DHT22;34289;48.572;13.378;2023-05-10T02:32:17;10.20;99.90
48488;DHT22;34289;48.572;13.378;2023-05-10T02:34:45;10.30;99.90
48488;DHT22;34289;48.572;13.378;2023-05-10T02:37:15;10.20;99.90
48488;DHT22;34289;48.572;13.378;2023-05-10T02:39:43;10.20;99.90
48488;DHT22;34289;48.572;13.378;2023-05-10T02:42:15;10.30;99.90
48488;DHT22;34289;48.572;13.378;2023-05-10T02:44:42;10.20;99.90
48488;DHT22;34289;48.572;13.378;2023-05-10T02:47:08;10.30;99.90
48488;DHT22;34289;48.572;13.378;2023-05-10T02:49:34;10.30;99.90
48488;DHT22;34289;48.572;13.378;2023-05-10T02:52:01;10.30;99.90
48488;DHT22;34289;48.572;13.378;2023-05-10T02:54:33;10.40;99.90
48488;DHT22;34289;48.572;13.378;2023-05-10T02:57:04;10.40;99.90
48488;DHT22;34289;48.572;13.378;2023-05-10T02:59:30;10.30;99.90
48488;DHT22;34289;48.572;13.378;2023-05-10T03:01:56;10.30;99.90
48488;DHT22;34289;48.572;13.378;2023-05-10T03:04:21;10.40;99.90
48488;DHT22;34289;48.572;13.378;2023-05-10T03:06:47;10.30;99.90
48488;DHT22;34289;48.572;13.378;2023-05-10T03:09:13;10.30;99.90
48488;DHT22;34289;48.572;13.378;2023-05-10T03:11:57;10.20;99.90
48488;DHT22;34289;48.572;13.378;2023-05-10T03:17:09;10.30;99.90
48488;DHT22;34289;48.572;13.378;2023-05-10T03:19:39;10.20;99.90
48488;DHT22;34289;48.572;13.378;2023-05-10T03:22:10;10.20;99.90
48488;DHT22;34289;48.572;13.378;2023-05-10T03:24:39;10.40;99.90
48488;DHT22;34289;48.572;13.378;2023-05-10T03:27:07;10.70;99.90
48488;DHT22;34289;48.572;13.378;2023-05-10T03:29:33;10.30;99.90
48488;DHT22;34289;48.572;13.378;2023-05-10T03:31:59;10.40;99.90
48488;DHT22;34289;48.572;13.378;2023-05-10T03:34:25;10.40;99.90
48488;DHT22;34289;48.572;13.378;2023-05-10T03:36:51;10.50;99.90
48488;DHT22;34289;48.572;13.378;2023-05-10T03:39:17;10.80;99.90
48488;DHT22;34289;48.572;13.378;2023-05-10T03:41:43;10.70;99.90
48488;DHT22;34289;48.572;13.378;2023-05-10T03:44:08;10.60;99.90
48488;DHT22;34289;48.572;13.378;2023-05-10T03:46:34;10.40;99.90
48488;DHT22;34289;48.572;13.378;2023-05-10T03:48:59;10.40;99.90
48488;DHT22;34289;48.572;13.378;2023-05-10T03:51:25;10.50;99.90
48488;DHT22;34289;48.572;13.378;2023-05-10T03:53:56;10.40;99.90
48488;DHT22;34289;48.572;13.378;2023-05-10T03:56:22;10.50;99.90
48488;DHT22;34289;48.572;13.378;2023-05-10T03:58:48;10.60;99.90
48488;DHT22;34289;48.572;13.378;2023-05-10T04:01:14;10.90;99.90
48488;DHT22;34289;48.572;13.378;2023-05-10T04:03:39;10.80;99.90
48488;DHT22;34289;48.572;13.378;2023-05-10T04:06:05;10.90;99.90
48488;DHT22;34289;48.572;13.378;2023-05-10T04:08:32;10.80;99.90
48488;DHT22;34289;48.572;13.378;2023-05-10T04:11:10;10.70;99.90
48488;DHT22;34289;48.572;13.378;2023-05-10T04:13:36;10.70;99.90
48488;DHT22;34289;48.572;13.378;2023-05-10T04:16:02;10.90;99.90
48488;DHT22;34289;48.572;13.378;2023-05-10T04:18:27;10.90;99.90
48488;DHT22;34289;48.572;13.378;2023-05-10T04:20:53;10.90;99.90
48488;DHT22;34289;48.572;13.378;2023-05-10T04:23:19;10.70;99.90
48488;DHT22;34289;48.572;13.378;2023-05-10T04:25:44;10.70;99.90
48488;DHT22;34289;48.572;13.378;2023-05-10T04:28:10;10.70;99.90
48488;DHT22;34289;48.572;13.378;2023-05-10T04:30:36;10.70;99.90
48488;DHT22;34289;48.572;13.378;2023-05-10T04:33:01;10.80;99.90
48488;DHT22;34289;48.572;13.378;2023-05-10T04:35:27;10.90;99.90
48488;DHT22;34289;48.572;13.378;2023-05-10T04:37:53;11.00;99.90
48488;DHT22;34289;48.572;13.378;2023-05-10T04:40:19;10.90;99.90
48488;DHT22;34289;48.572;13.378;2023-05-10T04:42:45;11.00;99.90
48488;DHT22;34289;48.572;13.378;2023-05-10T04:45:11;11.00;99.90
48488;DHT22;34289;48.572;13.378;2023-05-10T04:47:37;11.00;99.90
48488;DHT22;34289;48.572;13.378;2023-05-10T04:50:03;11.10;99.90
48488;DHT22;34289;48.572;13.378;2023-05-10T04:52:29;11.20;99.90
48488;DHT22;34289;48.572;13.378;2023-05-10T04:54:55;11.10;99.90
48488;DHT22;34289;48.572;13.378;2023-05-10T04:57:20;11.10;99.90
48488;DHT22;34289;48.572;13.378;2023-05-10T04:59:47;11.10;99.90
48488;DHT22;34289;48.572;13.378;2023-05-10T05:02:13;11.10;99.90
48488;DHT22;34289;48.572;13.378;2023-05-10T05:04:38;11.00;99.90
48488;DHT22;34289;48.572;13.378;2023-05-10T05:07:04;11.10;99.90
48488;DHT22;34289;48.572;13.378;2023-05-10T05:09:30;11.10;99.90
48488;DHT22;34289;48.572;13.378;2023-05-10T05:11:57;11.20;99.90
48488;DHT22;34289;48.572;13.378;2023-05-10T05:14:23;11.30;99.90
48488;DHT22;34289;48.572;13.378;2023-05-10T05:16:53;11.40;99.90
48488;DHT22;34289;48.572;13.378;2023-05-10T05:19:19;11.30;99.90
48488;DHT22;34289;48.572;13.378;2023-05-10T05:21:45;11.40;99.90
48488;DHT22;34289;48.572;13.378;2023-05-10T05:24:10;11.20;99.90
48488;DHT22;34289;48.572;13.378;2023-05-10T05:26:38;11.20;99.90
48488;DHT22;34289;48.572;13.378;2023-05-10T05:29:04;11.30;99.90
48488;DHT22;34289;48.572;13.378;2023-05-10T05:31:29;11.30;99.90
48488;DHT22;34289;48.572;13.378;2023-05-10T05:33:55;11.20;99.90
48488;DHT22;34289;48.572;13.378;2023-05-10T05:36:24;11.30;99.90
48488;DHT22;34289;48.572;13.378;2023-05-10T05:38:50;11.30;99.90
48488;DHT22;34289;48.572;13.378;2023-05-10T05:41:15;11.30;99.90
48488;DHT22;34289;48.572;13.378;2023-05-10T05:43:41;11.30;99.90
48488;DHT22;34289;48.572;13.378;2023-05-10T05:46:06;11.20;99.90
48488;DHT22;34289;48.572;13.378;2023-05-10T05:48:32;11.20;99.90
48488;DHT22;34289;48.572;13.378;2023-05-10T05:50:58;11.20;99.90
48488;DHT22;34289;48.572;13.378;2023-05-10T05:53:23;11.20;99.90
48488;DHT22;34289;48.572;13.378;2023-05-10T05:55:56;11.20;99.90
48488;DHT22;34289;48.572;13.378;2023-05-10T05:58:23;11.20;99.90
48488;DHT22;34289;48.572;13.378;2023-05-10T06:00:50;11.30;99.90
48488;DHT22;34289;48.572;13.378;2023-05-10T06:03:20;11.30;99.90
48488;DHT22;34289;48.572;13.378;2023-05-10T06:05:46;11.30;99.90
48488;DHT22;34289;48.572;13.378;2023-05-10T06:08:12;11.30;99.90
48488;DHT22;34289;48.572;13.378;2023-05-10T06:10:37;11.40;99.90
48488;DHT22;34289;48.572;13.378;2023-05-10T06:13:03;11.40;99.90
48488;DHT22;34289;48.572;13.378;2023-05-10T06:15:29;11.40;99.90
48488;DHT22;34289;48.572;13.378;2023-05-10T06:17:54;11.30;99.90
48488;DHT22;34289;48.572;13.378;2023-05-10T06:20:20;11.30;99.90
48488;DHT22;34289;48.572;13.378;2023-05-10T06:22:45;11.30;99.90
48488;DHT22;34289;48.572;13.378;2023-05-10T06:25:11;11.30;99.90
48488;DHT22;34289;48.572;13.378;2023-05-10T06:27:37;11.40;99.90
48488;DHT22;34289;48.572;13.378;2023-05-10T06:30:03;11.50;99.90
48488;DHT22;34289;48.572;13.378;2023-05-10T06:32:30;11.40;99.90
48488;DHT22;34289;48.572;13.378;2023-05-10T06:34:55;11.50;99.90
48488;DHT22;34289;48.572;13.378;2023-05-10T06:37:21;11.40;99.90
48488;DHT22;34289;48.572;13.378;2023-05-10T06:39:47;11.50;99.90
48488;DHT22;34289;48.572;13.378;2023-05-10T06:42:12;11.40;99.90
48488;DHT22;34289;48.572;13.378;2023-05-10T06:44:38;11.70;99.90
48488;DHT22;34289;48.572;13.378;2023-05-10T06:47:04;11.60;99.90
48488;DHT22;34289;48.572;13.378;2023-05-10T06:49:29;11.60;99.90
48488;DHT22;34289;48.572;13.378;2023-05-10T06:51:55;11.60;99.90
48488;DHT22;34289;48.572;13.378;2023-05-10T06:54:21;11.50;99.90
48488;DHT22;34289;48.572;13.378;2023-05-10T06:56:47;11.80;99.90
48488;DHT22;34289;48.572;13.378;2023-05-10T06:59:12;11.80;99.90
48488;DHT22;34289;48.572;13.378;2023-05-10T07:01:39;11.80;99.90
48488;DHT22;34289;48.572;13.378;2023-05-10T07:04:05;11.90;99.90
48488;DHT22;34289;48.572;13.378;2023-05-10T07:06:30;12.00;99.90
48488;DHT22;34289;48.572;13.378;2023-05-10T07:08:56;12.10;99.90
48488;DHT22;34289;48.572;13.378;2023-05-10T07:11:22;12.10;99.90
48488;DHT22;34289;48.572;13.378;2023-05-10T07:13:48;12.10;99.90
48488;DHT22;34289;48.572;13.378;2023-05-10T07:16:13;12.20;99.90
48488;DHT22;34289;48.572;13.378;2023-05-10T07:18:39;12.20;99.90
48488;DHT22;34289;48.572;13.378;2023-05-10T07:21:04;12.30;99.90
48488;DHT22;34289;48.572;13.378;2023-05-10T07:23:30;12.30;99.90
48488;DHT22;34289;48.572;13.378;2023-05-10T07:25:56;12.30;99.90
48488;DHT22;34289;48.572;13.378;2023-05-10T07:28:23;12.20;99.90
48488;DHT22;34289;48.572;13.378;2023-05-10T07:30:49;12.30;99.90
48488;DHT22;34289;48.572;13.378;2023-05-10T07:33:16;12.20;99.90
48488;DHT22;34289;48.572;13.378;2023-05-10T07:35:42;12.30;99.90
48488;DHT22;34289;48.572;13.378;2023-05-10T07:38:08;12.30;99.90
48488;DHT22;34289;48.572;13.378;2023-05-10T07:40:33;12.30;99.90
48488;DHT22;34289;48.572;13.378;2023-05-10T07:42:59;12.40;99.90
48488;DHT22;34289;48.572;13.378;2023-05-10T07:45:27;12.50;99.90
48488;DHT22;34289;48.572;13.378;2023-05-10T07:47:52;12.50;99.90
48488;DHT22;34289;48.572;13.378;2023-05-10T07:50:18;12.60;99.90
48488;DHT22;34289;48.572;13.378;2023-05-10T07:52:44;12.60;99.90
48488;DHT22;34289;48.572;13.378;2023-05-10T07:55:10;12.60;99.90
48488;DHT22;34289;48.572;13.378;2023-05-10T07:57:35;12.60;99.90
48488;DHT22;34289;48.572;13.378;2023-05-10T08:00:02;12.50;99.90
48488;DHT22;34289;48.572;13.378;2023-05-10T08:02:27;12.40;99.90
48488;DHT22;34289;48.572;13.378;2023-05-10T08:04:53;12.30;99.90
48488;DHT22;34289;48.572;13.378;2023-05-10T08:07:19;12.30;99.90
48488;DHT22;34289;48.572;13.378;2023-05-10T08:09:44;12.20;99.90
48488;DHT22;34289;48.572;13.378;2023-05-10T08:12:10;12.30;99.90
48488;DHT22;34289;48.572;13.378;2023-05-10T08:14:35;12.40;99.90
48488;DHT22;34289;48.572;13.378;2023-05-10T08:17:02;12.60;99.90
48488;DHT22;34289;48.572;13.378;2023-05-10T08:19:28;12.70;99.90
48488;DHT22;34289;48.572;13.378;2023-05-10T08:21:54;12.70;99.90
48488;DHT22;34289;48.572;13.378;2023-05-10T08:24:21;12.80;99.90
48488;DHT22;34289;48.572;13.378;2023-05-10T08:26:47;12.80;99.90
48488;DHT22;34289;48.572;13.378;2023-05-10T08:29:13;12.90;99.90
48488;DHT22;34289;48.572;13.378;2023-05-10T08:31:39;12.80;99.90
48488;DHT22;34289;48.572;13.378;2023-05-10T08:34:04;12.90;99.90
48488;DHT22;34289;48.572;13.378;2023-05-10T08:36:30;13.00;99.90
48488;DHT22;34289;48.572;13.378;2023-05-10T08:38:57;12.90;99.90
48488;DHT22;34289;48.572;13.378;2023-05-10T08:41:24;13.00;99.90
48488;DHT22;34289;48.572;13.378;2023-05-10T08:43:51;13.00;99.90
48488;DHT22;34289;48.572;13.378;2023-05-10T08:46:18;13.10;99.90
48488;DHT22;34289;48.572;13.378;2023-05-10T08:48:45;13.20;99.90
48488;DHT22;34289;48.572;13.378;2023-05-10T08:51:18;13.20;99.90
48488;DHT22;34289;48.572;13.378;2023-05-10T08:53:45;13.20;99.90
48488;DHT22;34289;48.572;13.378;2023-05-10T08:56:11;13.20;99.90
48488;DHT22;34289;48.572;13.378;2023-05-10T08:58:38;13.10;99.90
48488;DHT22;34289;48.572;13.378;2023-05-10T09:01:05;13.10;99.90
48488;DHT22;34289;48.572;13.378;2023-05-10T09:03:30;13.30;99.90
48488;DHT22;34289;48.572;13.378;2023-05-10T09:05:56;13.40;99.90
48488;DHT22;34289;48.572;13.378;2023-05-10T09:08:23;13.60;99.90
48488;DHT22;34289;48.572;13.378;2023-05-10T09:10:53;13.70;99.90
48488;DHT22;34289;48.572;13.378;2023-05-10T09:13:21;13.80;99.90
48488;DHT22;34289;48.572;13.378;2023-05-10T09:15:47;13.70;99.90
48488;DHT22;34289;48.572;13.378;2023-05-10T09:18:13;13.80;99.90
48488;DHT22;34289;48.572;13.378;2023-05-10T09:20:39;14.00;99.90
48488;DHT22;34289;48.572;13.378;2023-05-10T09:23:05;14.10;99.90
48488;DHT22;34289;48.572;13.378;2023-05-10T09:25:31;14.10;99.90
48488;DHT22;34289;48.572;13.378;2023-05-10T09:27:59;14.00;99.90
48488;DHT22;34289;48.572;13.378;2023-05-10T09:30:26;13.90;99.90
48488;DHT22;34289;48.572;13.378;2023-05-10T09:32:53;13.90;99.90
48488;DHT22;34289;48.572;13.378;2023-05-10T09:35:23;13.90;99.90
48488;DHT22;34289;48.572;13.378;2023-05-10T09:37:51;13.80;99.90
48488;DHT22;34289;48.572;13.378;2023-05-10T09:40:24;13.80;99.90
48488;DHT22;34289;48.572;13.378;2023-05-10T09:42:56;13.90;99.90
48488;DHT22;34289;48.572;13.378;2023-05-10T09:45:26;13.90;99.90
48488;DHT22;34289;48.572;13.378;2023-05-10T09:47:52;14.00;99.90
48488;DHT22;34289;48.572;13.378;2023-05-10T09:50:19;14.00;99.90
48488;DHT22;34289;48.572;13.378;2023-05-10T09:52:54;13.90;99.90
48488;DHT22;34289;48.572;13.378;2023-05-10T09:55:23;13.80;99.90
48488;DHT22;34289;48.572;13.378;2023-05-10T09:57:58;13.80;99.90
48488;DHT22;34289;48.572;13.378;2023-05-10T10:00:24;13.70;99.90
48488;DHT22;34289;48.572;13.378;2023-05-10T10:02:58;13.80;99.90
48488;DHT22;34289;48.572;13.378;2023-05-10T10:05:34;13.80;99.90
48488;DHT22;34289;48.572;13.378;2023-05-10T10:08:03;13.70;99.90
48488;DHT22;34289;48.572;13.378;2023-05-10T10:10:31;13.80;99.90
48488;DHT22;34289;48.572;13.378;2023-05-10T10:12:56;13.90;99.90
48488;DHT22;34289;48.572;13.378;2023-05-10T10:15:23;13.90;99.90
48488;DHT22;34289;48.572;13.378;2023-05-10T10:17:50;14.00;99.90
48488;DHT22;34289;48.572;13.378;2023-05-10T10:20:16;14.00;99.90
48488;DHT22;34289;48.572;13.378;2023-05-10T10:22:42;14.10;99.90
48488;DHT22;34289;48.572;13.378;2023-05-10T10:25:12;14.10;99.90
48488;DHT22;34289;48.572;13.378;2023-05-10T10:30:41;14.20;99.90
48488;DHT22;34289;48.572;13.378;2023-05-10T10:35:58;14.30;99.90
48488;DHT22;34289;48.572;13.378;2023-05-10T10:38:25;14.40;99.90
48488;DHT22;34289;48.572;13.378;2023-05-10T10:41:09;14.60;99.90
48488;DHT22;34289;48.572;13.378;2023-05-10T10:43:35;14.60;99.90
48488;DHT22;34289;48.572;13.378;2023-05-10T10:48:47;14.70;99.90
48488;DHT22;34289;48.572;13.378;2023-05-10T10:51:14;14.90;99.90
48488;DHT22;34289;48.572;13.378;2023-05-10T10:53:40;15.00;99.90
48488;DHT22;34289;48.572;13.378;2023-05-10T10:56:13;14.90;99.90
48488;DHT22;34289;48.572;13.378;2023-05-10T10:58:40;14.90;99.90
48488;DHT22;34289;48.572;13.378;2023-05-10T11:01:17;14.90;99.90
48488;DHT22;34289;48.572;13.378;2023-05-10T11:06:35;14.90;99.90
48488;DHT22;34289;48.572;13.378;2023-05-10T11:09:08;14.90;99.90
48488;DHT22;34289;48.572;13.378;2023-05-10T11:11:35;15.00;99.90
48488;DHT22;34289;48.572;13.378;2023-05-10T11:14:05;14.90;99.90
48488;DHT22;34289;48.572;13.378;2023-05-10T11:16:42;15.00;99.90
48488;DHT22;34289;48.572;13.378;2023-05-10T11:19:12;15.00;99.90
48488;DHT22;34289;48.572;13.378;2023-05-10T11:22:12;15.20;99.90
48488;DHT22;34289;48.572;13.378;2023-05-10T11:24:38;15.30;99.90
48488;DHT22;34289;48.572;13.378;2023-05-10T11:27:05;15.30;99.90
48488;DHT22;34289;48.572;13.378;2023-05-10T11:29:30;15.20;99.90
48488;DHT22;34289;48.572;13.378;2023-05-10T11:31:59;15.10;99.90
48488;DHT22;34289;48.572;13.378;2023-05-10T11:34:29;15.10;99.90
48488;DHT22;34289;48.572;13.378;2023-05-10T11:36:56;15.30;99.90
48488;DHT22;34289;48.572;13.378;2023-05-10T11:39:29;15.40;99.90
48488;DHT22;34289;48.572;13.378;2023-05-10T11:41:55;15.50;99.90
48488;DHT22;34289;48.572;13.378;2023-05-10T11:44:21;15.80;99.90
48488;DHT22;34289;48.572;13.378;2023-05-10T11:46:46;15.90;99.90
48488;DHT22;34289;48.572;13.378;2023-05-10T11:49:12;16.00;99.90
48488;DHT22;34289;48.572;13.378;2023-05-10T11:51:39;15.80;99.90
48488;DHT22;34289;48.572;13.378;2023-05-10T11:54:09;15.80;99.90
48488;DHT22;34289;48.572;13.378;2023-05-10T11:56:36;15.70;99.90
48488;DHT22;34289;48.572;13.378;2023-05-10T11:59:01;15.70;99.90
48488;DHT22;34289;48.572;13.378;2023-05-10T12:01:28;15.80;99.90
48488;DHT22;34289;48.572;13.378;2023-05-10T12:03:56;15.80;99.90
48488;DHT22;34289;48.572;13.378;2023-05-10T12:06:32;15.90;99.90
48488;DHT22;34289;48.572;13.378;2023-05-10T12:09:06;16.00;99.90
48488;DHT22;34289;48.572;13.378;2023-05-10T12:11:32;16.10;99.90
48488;DHT22;34289;48.572;13.378;2023-05-10T12:14:03;16.20;99.90
48488;DHT22;34289;48.572;13.378;2023-05-10T12:16:29;16.10;99.90
48488;DHT22;34289;48.572;13.378;2023-05-10T12:18:57;16.10;99.90
48488;DHT22;34289;48.572;13.378;2023-05-10T12:21:23;16.00;99.90
48488;DHT22;34289;48.572;13.378;2023-05-10T12:23:54;16.10;99.90
48488;DHT22;34289;48.572;13.378;2023-05-10T12:26:23;16.20;99.90
48488;DHT22;34289;48.572;13.378;2023-05-10T12:28:50;16.00;99.90
48488;DHT22;34289;48.572;13.378;2023-05-10T12:31:15;16.00;99.90
48488;DHT22;34289;48.572;13.378;2023-05-10T12:33:43;15.90;99.90
48488;DHT22;34289;48.572;13.378;2023-05-10T12:36:10;16.10;99.90
48488;DHT22;34289;48.572;13.378;2023-05-10T12:38:40;16.10;99.90
48488;DHT22;34289;48.572;13.378;2023-05-10T12:41:12;15.90;99.90
48488;DHT22;34289;48.572;13.378;2023-05-10T12:43:38;15.50;99.90
48488;DHT22;34289;48.572;13.378;2023-05-10T12:46:08;15.30;99.90
48488;DHT22;34289;48.572;13.378;2023-05-10T12:48:35;15.40;99.90
48488;DHT22;34289;48.572;13.378;2023-05-10T12:51:02;15.50;99.90
48488;DHT22;34289;48.572;13.378;2023-05-10T12:53:29;15.60;99.90
48488;DHT22;34289;48.572;13.378;2023-05-10T12:55:55;15.50;99.90
48488;DHT22;34289;48.572;13.378;2023-05-10T12:58:20;15.70;99.90
48488;DHT22;34289;48.572;13.378;2023-05-10T13:00:46;15.70;99.90
48488;DHT22;34289;48.572;13.378;2023-05-10T13:03:12;15.70;99.90
48488;DHT22;34289;48.572;13.378;2023-05-10T13:05:38;15.40;99.90
48488;DHT22;34289;48.572;13.378;2023-05-10T13:08:04;15.40;99.90
48488;DHT22;34289;48.572;13.378;2023-05-10T13:10:30;15.40;99.90
48488;DHT22;34289;48.572;13.378;2023-05-10T13:12:56;15.40;99.90
48488;DHT22;34289;48.572;13.378;2023-05-10T13:15:22;15.40;99.90
48488;DHT22;34289;48.572;13.378;2023-05-10T13:17:48;15.40;99.90
48488;DHT22;34289;48.572;13.378;2023-05-10T13:20:14;15.30;99.90
48488;DHT22;34289;48.572;13.378;2023-05-10T13:22:40;15.50;99.90
48488;DHT22;34289;48.572;13.378;2023-05-10T13:25:06;15.90;99.90
48488;DHT22;34289;48.572;13.378;2023-05-10T13:27:32;16.20;99.90
48488;DHT22;34289;48.572;13.378;2023-05-10T13:29:57;16.30;99.90
48488;DHT22;34289;48.572;13.378;2023-05-10T13:32:25;16.40;99.90
48488;DHT22;34289;48.572;13.378;2023-05-10T13:34:51;16.20;99.90
48488;DHT22;34289;48.572;13.378;2023-05-10T13:37:16;16.00;99.90
48488;DHT22;34289;48.572;13.378;2023-05-10T13:39:42;15.80;99.90
48488;DHT22;34289;48.572;13.378;2023-05-10T13:42:08;15.80;99.90
48488;DHT22;34289;48.572;13.378;2023-05-10T13:44:33;16.00;99.90
48488;DHT22;34289;48.572;13.378;2023-05-10T13:46:59;16.30;99.90
48488;DHT22;34289;48.572;13.378;2023-05-10T13:49:26;16.40;99.90
48488;DHT22;34289;48.572;13.378;2023-05-10T13:51:52;16.50;99.90
48488;DHT22;34289;48.572;13.378;2023-05-10T13:54:17;16.60;99.90
48488;DHT22;34289;48.572;13.378;2023-05-10T13:56:45;16.80;99.90
48488;DHT22;34289;48.572;13.378;2023-05-10T13:59:12;16.70;99.90
48488;DHT22;34289;48.572;13.378;2023-05-10T14:01:39;17.00;99.90
48488;DHT22;34289;48.572;13.378;2023-05-10T14:04:05;16.70;99.90
48488;DHT22;34289;48.572;13.378;2023-05-10T14:06:30;16.60;99.90
48488;DHT22;34289;48.572;13.378;2023-05-10T14:08:56;16.60;99.90
48488;DHT22;34289;48.572;13.378;2023-05-10T14:11:22;16.70;99.90
48488;DHT22;34289;48.572;13.378;2023-05-10T14:13:48;16.70;99.90
48488;DHT22;34289;48.572;13.378;2023-05-10T14:16:14;16.80;99.90
48488;DHT22;34289;48.572;13.378;2023-05-10T14:18:40;16.70;99.90
48488;DHT22;34289;48.572;13.378;2023-05-10T14:21:05;16.60;99.90
48488;DHT22;34289;48.572;13.378;2023-05-10T14:23:31;16.70;99.90
48488;DHT22;34289;48.572;13.378;2023-05-10T14:25:57;16.60;99.90
48488;DHT22;34289;48.572;13.378;2023-05-10T14:28:22;16.50;99.90
48488;DHT22;34289;48.572;13.378;2023-05-10T14:30:49;16.40;99.90
48488;DHT22;34289;48.572;13.378;2023-05-10T14:33:16;16.40;99.90
48488;DHT22;34289;48.572;13.378;2023-05-10T14:35:42;16.40;99.90
48488;DHT22;34289;48.572;13.378;2023-05-10T14:38:08;16.50;99.90
48488;DHT22;34289;48.572;13.378;2023-05-10T14:40:33;16.30;99.90
48488;DHT22;34289;48.572;13.378;2023-05-10T14:42:59;16.30;99.90
48488;DHT22;34289;48.572;13.378;2023-05-10T14:45:26;16.30;99.90
48488;DHT22;34289;48.572;13.378;2023-05-10T14:47:51;16.30;99.90
48488;DHT22;34289;48.572;13.378;2023-05-10T14:50:17;16.30;99.90
48488;DHT22;34289;48.572;13.378;2023-05-10T14:52:43;16.30;99.90
48488;DHT22;34289;48.572;13.378;2023-05-10T14:55:09;16.60;99.90
48488;DHT22;34289;48.572;13.378;2023-05-10T14:57:35;16.70;99.90
48488;DHT22;34289;48.572;13.378;2023-05-10T15:00:02;16.80;99.90
48488;DHT22;34289;48.572;13.378;2023-05-10T15:02:27;16.80;99.90
48488;DHT22;34289;48.572;13.378;2023-05-10T15:04:53;16.80;99.90
48488;DHT22;34289;48.572;13.378;2023-05-10T15:07:19;16.60;99.90
48488;DHT22;34289;48.572;13.378;2023-05-10T15:09:44;16.50;99.90
48488;DHT22;34289;48.572;13.378;2023-05-10T15:12:10;16.50;99.90
48488;DHT22;34289;48.572;13.378;2023-05-10T15:14:36;16.40;99.90
48488;DHT22;34289;48.572;13.378;2023-05-10T15:17:02;16.40;99.90
48488;DHT22;34289;48.572;13.378;2023-05-10T15:19:28;16.40;99.90
48488;DHT22;34289;48.572;13.378;2023-05-10T15:21:54;16.50;99.90
48488;DHT22;34289;48.572;13.378;2023-05-10T15:24:21;16.40;99.90
48488;DHT22;34289;48.572;13.378;2023-05-10T15:26:47;16.30;99.90
48488;DHT22;34289;48.572;13.378;2023-05-10T15:29:12;16.20;99.90
48488;DHT22;34289;48.572;13.378;2023-05-10T15:31:48;16.00;99.90
48488;DHT22;34289;48.572;13.378;2023-05-10T15:34:17;15.90;99.90
48488;DHT22;34289;48.572;13.378;2023-05-10T15:36:43;15.90;99.90
48488;DHT22;34289;48.572;13.378;2023-05-10T15:39:09;15.90;99.90
48488;DHT22;34289;48.572;13.378;2023-05-10T15:41:35;15.90;99.90
48488;DHT22;34289;48.572;13.378;2023-05-10T15:44:01;15.90;99.90